sensor_id;sensor_type;location;lat;lon;timestamp;temperature;humidity
30290;DHT22;17105;55.652;37.710;2022-11-15T16:40:46;2.10;85.60
30290;DHT22;17105;55.652;37.710;2022-11-15T16:41:20;2.20;86.10
30290;DHT22;17105;55.652;37.710;2022-11-15T16:41:55;2.20;86.00
30290;DHT22;17105;55.652;37.710;2022-11-15T16:42:29;2.20;85.90
30290;DHT22;17105;55.652;37.710;2022-11-15T16:43:04;2.20;86.20
30290;DHT22;17105;55.652;37.710;2022-11-15T16:43:38;2.20;86.00
30290;DHT22;17105;55.652;37.710;2022-11-15T16:44:12;2.20;86.00
30290;DHT22;17105;55.652;37.710;2022-11-15T16:44:46;2.20;86.00
30290;DHT22;17105;55.652;37.710;2022-11-15T16:45:20;2.20;85.90
30290;DHT22;17105;55.652;37.710;2022-11-15T16:45:55;2.20;86.10
30290;DHT22;17105;55.652;37.710;2022-11-15T16:46:29;2.20;86.20
30290;DHT22;17105;55.652;37.710;2022-11-15T16:47:03;2.20;86.30
30290;DHT22;17105;55.652;37.710;2022-11-15T16:47:38;2.30;86.60
30290;DHT22;17105;55.652;37.710;2022-11-15T16:48:17;2.20;86.60
30290;DHT22;17105;55.652;37.710;2022-11-15T16:48:53;2.20;86.60
30290;DHT22;17105;55.652;37.710;2022-11-15T16:49:29;2.20;86.60
30290;DHT22;17105;55.652;37.710;2022-11-15T16:50:03;2.20;86.70
30290;DHT22;17105;55.652;37.710;2022-11-15T16:50:39;2.20;87.00
30290;DHT22;17105;55.652;37.710;2022-11-15T16:51:12;2.20;86.90
30290;DHT22;17105;55.652;37.710;2022-11-15T16:51:48;2.10;86.80
30290;DHT22;17105;55.652;37.710;2022-11-15T16:52:22;2.10;86.90
30290;DHT22;17105;55.652;37.710;2022-11-15T16:52:58;2.10;86.80
30290;DHT22;17105;55.652;37.710;2022-11-15T16:53:31;2.10;86.80
30290;DHT22;17105;55.652;37.710;2022-11-15T16:54:06;2.10;86.80
30290;DHT22;17105;55.652;37.710;2022-11-15T16:54:41;2.10;86.80
30290;DHT22;17105;55.652;37.710;2022-11-15T16:55:15;2.10;86.70
30290;DHT22;17105;55.652;37.710;2022-11-15T16:55:50;2.10;86.70
30290;DHT22;17105;55.652;37.710;2022-11-15T16:56:26;2.10;86.70
30290;DHT22;17105;55.652;37.710;2022-11-15T16:56:59;2.20;86.80
30290;DHT22;17105;55.652;37.710;2022-11-15T16:57:34;2.20;86.70
30290;DHT22;17105;55.652;37.710;2022-11-15T16:58:08;2.20;86.60
30290;DHT22;17105;55.652;37.710;2022-11-15T16:58:44;2.20;86.50
30290;DHT22;17105;55.652;37.710;2022-11-15T16:59:17;2.20;86.50
30290;DHT22;17105;55.652;37.710;2022-11-15T16:59:56;2.20;86.50
30290;DHT22;17105;55.652;37.710;2022-11-15T17:00:30;2.20;86.40
30290;DHT22;17105;55.652;37.710;2022-11-15T17:01:05;2.20;86.50
30290;DHT22;17105;55.652;37.710;2022-11-15T17:01:39;2.30;86.50
30290;DHT22;17105;55.652;37.710;2022-11-15T17:02:18;2.30;86.60
30290;DHT22;17105;55.652;37.710;2022-11-15T17:02:51;2.30;86.60
30290;DHT22;17105;55.652;37.710;2022-11-15T17:03:26;2.30;86.60
30290;DHT22;17105;55.652;37.710;2022-11-15T17:04:00;2.30;86.50
30290;DHT22;17105;55.652;37.710;2022-11-15T17:04:45;2.30;86.50
30290;DHT22;17105;55.652;37.710;2022-11-15T17:05:19;2.30;86.40
30290;DHT22;17105;55.652;37.710;2022-11-15T17:05:56;2.30;86.30
30290;DHT22;17105;55.652;37.710;2022-11-15T17:06:30;2.40;86.40
30290;DHT22;17105;55.652;37.710;2022-11-15T17:07:04;2.30;86.40
30290;DHT22;17105;55.652;37.710;2022-11-15T17:07:37;2.30;86.50
30290;DHT22;17105;55.652;37.710;2022-11-15T17:08:11;2.30;86.40
30290;DHT22;17105;55.652;37.710;2022-11-15T17:08:45;2.30;86.40
30290;DHT22;17105;55.652;37.710;2022-11-15T17:09:18;2.30;86.60
30290;DHT22;17105;55.652;37.710;2022-11-15T17:09:52;2.30;86.60
30290;DHT22;17105;55.652;37.710;2022-11-15T17:10:26;2.30;86.50
30290;DHT22;17105;55.652;37.710;2022-11-15T17:11:05;2.30;86.50
30290;DHT22;17105;55.652;37.710;2022-11-15T17:11:39;2.30;86.50
30290;DHT22;17105;55.652;37.710;2022-11-15T17:12:14;2.30;86.30
30290;DHT22;17105;55.652;37.710;2022-11-15T17:12:48;2.30;86.20
30290;DHT22;17105;55.652;37.710;2022-11-15T17:13:23;2.30;86.20
30290;DHT22;17105;55.652;37.710;2022-11-15T17:13:57;2.30;86.70
30290;DHT22;17105;55.652;37.710;2022-11-15T17:14:30;2.30;86.20
30290;DHT22;17105;55.652;37.710;2022-11-15T17:15:05;2.30;86.20
30290;DHT22;17105;55.652;37.710;2022-11-15T17:15:39;2.30;86.30
30290;DHT22;17105;55.652;37.710;2022-11-15T17:16:14;2.30;86.80
30290;DHT22;17105;55.652;37.710;2022-11-15T17:16:48;2.30;86.70
30290;DHT22;17105;55.652;37.710;2022-11-15T17:17:22;2.30;86.70
30290;DHT22;17105;55.652;37.710;2022-11-15T17:17:59;2.30;86.80
30290;DHT22;17105;55.652;37.710;2022-11-15T17:18:33;2.20;86.90
30290;DHT22;17105;55.652;37.710;2022-11-15T17:19:10;2.20;86.80
30290;DHT22;17105;55.652;37.710;2022-11-15T17:19:44;2.20;86.90
30290;DHT22;17105;55.652;37.710;2022-11-15T17:20:18;2.20;86.90
30290;DHT22;17105;55.652;37.710;2022-11-15T17:20:52;2.20;86.90
30290;DHT22;17105;55.652;37.710;2022-11-15T17:21:27;2.20;87.00
30290;DHT22;17105;55.652;37.710;2022-11-15T17:22:05;2.20;87.00
30290;DHT22;17105;55.652;37.710;2022-11-15T17:22:39;2.20;86.80
30290;DHT22;17105;55.652;37.710;2022-11-15T17:23:15;2.20;86.80
30290;DHT22;17105;55.652;37.710;2022-11-15T17:23:49;2.30;86.90
30290;DHT22;17105;55.652;37.710;2022-11-15T17:24:22;2.30;86.90
30290;DHT22;17105;55.652;37.710;2022-11-15T17:24:57;2.30;86.90
30290;DHT22;17105;55.652;37.710;2022-11-15T17:25:30;2.30;87.00
30290;DHT22;17105;55.652;37.710;2022-11-15T17:26:07;2.30;86.90
30290;DHT22;17105;55.652;37.710;2022-11-15T17:27:02;2.30;86.90
30290;DHT22;17105;55.652;37.710;2022-11-15T17:27:37;2.30;86.90
30290;DHT22;17105;55.652;37.710;2022-11-15T17:28:10;2.30;87.00
30290;DHT22;17105;55.652;37.710;2022-11-15T17:28:45;2.30;86.70
30290;DHT22;17105;55.652;37.710;2022-11-15T17:29:19;2.30;86.70
30290;DHT22;17105;55.652;37.710;2022-11-15T17:29:52;2.30;86.80
30290;DHT22;17105;55.652;37.710;2022-11-15T17:30:30;2.30;86.80
30290;DHT22;17105;55.652;37.710;2022-11-15T17:31:05;2.30;86.90
30290;DHT22;17105;55.652;37.710;2022-11-15T17:31:39;2.30;86.90
30290;DHT22;17105;55.652;37.710;2022-11-15T17:32:13;2.30;86.90
30290;DHT22;17105;55.652;37.710;2022-11-15T17:32:46;2.30;87.20
30290;DHT22;17105;55.652;37.710;2022-11-15T17:33:20;2.30;87.30
30290;DHT22;17105;55.652;37.710;2022-11-15T17:33:55;2.30;87.30
30290;DHT22;17105;55.652;37.710;2022-11-15T17:34:28;2.30;87.30
30290;DHT22;17105;55.652;37.710;2022-11-15T17:35:03;2.20;87.50
30290;DHT22;17105;55.652;37.710;2022-11-15T17:35:39;2.20;87.50
30290;DHT22;17105;55.652;37.710;2022-11-15T17:36:13;2.20;87.40
30290;DHT22;17105;55.652;37.710;2022-11-15T17:36:47;2.20;87.50
30290;DHT22;17105;55.652;37.710;2022-11-15T17:37:21;2.20;87.60
30290;DHT22;17105;55.652;37.710;2022-11-15T17:37:54;2.20;87.50
30290;DHT22;17105;55.652;37.710;2022-11-15T17:38:28;2.20;87.70
30290;DHT22;17105;55.652;37.710;2022-11-15T17:39:03;2.20;87.70
30290;DHT22;17105;55.652;37.710;2022-11-15T17:39:37;2.20;87.70
30290;DHT22;17105;55.652;37.710;2022-11-15T17:40:11;2.20;87.80
30290;DHT22;17105;55.652;37.710;2022-11-15T17:40:46;2.20;88.10
30290;DHT22;17105;55.652;37.710;2022-11-15T17:41:23;2.20;88.30
30290;DHT22;17105;55.652;37.710;2022-11-15T17:41:58;2.20;88.20
30290;DHT22;17105;55.652;37.710;2022-11-15T17:42:31;2.20;88.20
30290;DHT22;17105;55.652;37.710;2022-11-15T17:43:05;2.10;88.10
30290;DHT22;17105;55.652;37.710;2022-11-15T17:43:39;2.20;88.10
30290;DHT22;17105;55.652;37.710;2022-11-15T17:44:14;2.20;88.10
30290;DHT22;17105;55.652;37.710;2022-11-15T17:44:48;2.20;88.00
30290;DHT22;17105;55.652;37.710;2022-11-15T17:45:23;2.30;88.00
30290;DHT22;17105;55.652;37.710;2022-11-15T17:45:58;2.30;88.10
30290;DHT22;17105;55.652;37.710;2022-11-15T17:46:31;2.30;88.00
30290;DHT22;17105;55.652;37.710;2022-11-15T17:47:05;2.30;88.20
30290;DHT22;17105;55.652;37.710;2022-11-15T17:47:42;2.30;88.00
30290;DHT22;17105;55.652;37.710;2022-11-15T17:48:16;2.30;87.90
30290;DHT22;17105;55.652;37.710;2022-11-15T17:48:51;2.30;87.80
30290;DHT22;17105;55.652;37.710;2022-11-15T17:49:24;2.30;87.90
30290;DHT22;17105;55.652;37.710;2022-11-15T17:49:58;2.30;88.00
30290;DHT22;17105;55.652;37.710;2022-11-15T17:50:32;2.30;87.70
30290;DHT22;17105;55.652;37.710;2022-11-15T17:51:06;2.30;88.00
30290;DHT22;17105;55.652;37.710;2022-11-15T17:51:42;2.40;88.10
30290;DHT22;17105;55.652;37.710;2022-11-15T17:52:21;2.30;87.90
30290;DHT22;17105;55.652;37.710;2022-11-15T17:52:57;2.40;87.90
30290;DHT22;17105;55.652;37.710;2022-11-15T17:53:32;2.40;87.90
30290;DHT22;17105;55.652;37.710;2022-11-15T17:54:08;2.40;88.00
30290;DHT22;17105;55.652;37.710;2022-11-15T17:54:43;2.40;88.20
30290;DHT22;17105;55.652;37.710;2022-11-15T17:55:16;2.40;88.30
30290;DHT22;17105;55.652;37.710;2022-11-15T17:55:51;2.40;88.20
30290;DHT22;17105;55.652;37.710;2022-11-15T17:56:27;2.40;88.10
30290;DHT22;17105;55.652;37.710;2022-11-15T17:57:04;2.40;88.30
30290;DHT22;17105;55.652;37.710;2022-11-15T17:57:37;2.30;88.20
30290;DHT22;17105;55.652;37.710;2022-11-15T17:58:12;2.30;88.20
30290;DHT22;17105;55.652;37.710;2022-11-15T17:58:46;2.30;88.10
30290;DHT22;17105;55.652;37.710;2022-11-15T17:59:20;2.30;88.20
30290;DHT22;17105;55.652;37.710;2022-11-15T17:59:53;2.30;88.30
30290;DHT22;17105;55.652;37.710;2022-11-15T18:00:29;2.30;88.30
30290;DHT22;17105;55.652;37.710;2022-11-15T18:01:04;2.30;88.30
30290;DHT22;17105;55.652;37.710;2022-11-15T18:01:37;2.40;88.40
30290;DHT22;17105;55.652;37.710;2022-11-15T18:02:11;2.30;88.30
30290;DHT22;17105;55.652;37.710;2022-11-15T18:02:44;2.30;88.30
30290;DHT22;17105;55.652;37.710;2022-11-15T18:03:18;2.30;88.40
30290;DHT22;17105;55.652;37.710;2022-11-15T18:03:53;2.30;88.30
30290;DHT22;17105;55.652;37.710;2022-11-15T18:04:26;2.30;88.40
30290;DHT22;17105;55.652;37.710;2022-11-15T18:05:00;2.30;88.50
30290;DHT22;17105;55.652;37.710;2022-11-15T18:05:34;2.20;88.50
30290;DHT22;17105;55.652;37.710;2022-11-15T18:06:09;2.20;88.50
30290;DHT22;17105;55.652;37.710;2022-11-15T18:06:43;2.20;88.70
30290;DHT22;17105;55.652;37.710;2022-11-15T18:07:18;2.20;88.70
30290;DHT22;17105;55.652;37.710;2022-11-15T18:07:52;2.20;88.80
30290;DHT22;17105;55.652;37.710;2022-11-15T18:08:26;2.20;89.10
30290;DHT22;17105;55.652;37.710;2022-11-15T18:08:59;2.20;89.00
30290;DHT22;17105;55.652;37.710;2022-11-15T18:09:34;2.20;88.90
30290;DHT22;17105;55.652;37.710;2022-11-15T18:10:08;2.20;88.90
30290;DHT22;17105;55.652;37.710;2022-11-15T18:10:43;2.20;88.90
30290;DHT22;17105;55.652;37.710;2022-11-15T18:11:18;2.20;89.10
30290;DHT22;17105;55.652;37.710;2022-11-15T18:11:55;2.20;89.20
30290;DHT22;17105;55.652;37.710;2022-11-15T18:12:28;2.20;89.10
30290;DHT22;17105;55.652;37.710;2022-11-15T18:13:03;2.20;89.10
30290;DHT22;17105;55.652;37.710;2022-11-15T18:13:36;2.20;89.10
30290;DHT22;17105;55.652;37.710;2022-11-15T18:14:12;2.20;89.10
30290;DHT22;17105;55.652;37.710;2022-11-15T18:14:46;2.20;89.10
30290;DHT22;17105;55.652;37.710;2022-11-15T18:15:20;2.20;89.30
30290;DHT22;17105;55.652;37.710;2022-11-15T18:15:54;2.20;89.20
30290;DHT22;17105;55.652;37.710;2022-11-15T18:16:28;2.20;89.10
30290;DHT22;17105;55.652;37.710;2022-11-15T18:17:02;2.20;89.10
30290;DHT22;17105;55.652;37.710;2022-11-15T18:17:35;2.20;89.10
30290;DHT22;17105;55.652;37.710;2022-11-15T18:18:11;2.20;89.20
30290;DHT22;17105;55.652;37.710;2022-11-15T18:18:44;2.20;89.20
30290;DHT22;17105;55.652;37.710;2022-11-15T18:19:18;2.20;89.00
30290;DHT22;17105;55.652;37.710;2022-11-15T18:19:53;2.20;89.10
30290;DHT22;17105;55.652;37.710;2022-11-15T18:20:28;2.20;89.00
30290;DHT22;17105;55.652;37.710;2022-11-15T18:21:02;2.20;88.90
30290;DHT22;17105;55.652;37.710;2022-11-15T18:21:38;2.20;89.00
30290;DHT22;17105;55.652;37.710;2022-11-15T18:22:29;2.30;89.00
30290;DHT22;17105;55.652;37.710;2022-11-15T18:23:03;2.30;89.40
30290;DHT22;17105;55.652;37.710;2022-11-15T18:23:36;2.30;88.80
30290;DHT22;17105;55.652;37.710;2022-11-15T18:24:10;2.30;88.80
30290;DHT22;17105;55.652;37.710;2022-11-15T18:24:45;2.30;88.80
30290;DHT22;17105;55.652;37.710;2022-11-15T18:25:19;2.30;88.90
30290;DHT22;17105;55.652;37.710;2022-11-15T18:25:52;2.30;88.70
30290;DHT22;17105;55.652;37.710;2022-11-15T18:26:27;2.30;88.80
30290;DHT22;17105;55.652;37.710;2022-11-15T18:27:02;2.30;88.70
30290;DHT22;17105;55.652;37.710;2022-11-15T18:27:37;2.30;88.60
30290;DHT22;17105;55.652;37.710;2022-11-15T18:28:12;2.30;88.50
30290;DHT22;17105;55.652;37.710;2022-11-15T18:28:47;2.30;88.70
30290;DHT22;17105;55.652;37.710;2022-11-15T18:29:21;2.30;88.70
30290;DHT22;17105;55.652;37.710;2022-11-15T18:29:58;2.30;88.60
30290;DHT22;17105;55.652;37.710;2022-11-15T18:30:32;2.30;88.50
30290;DHT22;17105;55.652;37.710;2022-11-15T18:31:11;2.20;88.40
30290;DHT22;17105;55.652;37.710;2022-11-15T18:31:44;2.20;88.50
30290;DHT22;17105;55.652;37.710;2022-11-15T18:32:22;2.20;88.60
30290;DHT22;17105;55.652;37.710;2022-11-15T18:32:57;2.20;88.70
30290;DHT22;17105;55.652;37.710;2022-11-15T18:33:32;2.20;88.70
30290;DHT22;17105;55.652;37.710;2022-11-15T18:34:07;2.20;88.70
30290;DHT22;17105;55.652;37.710;2022-11-15T18:34:42;2.20;88.80
30290;DHT22;17105;55.652;37.710;2022-11-15T18:35:15;2.20;88.70
30290;DHT22;17105;55.652;37.710;2022-11-15T18:35:56;2.20;88.60
30290;DHT22;17105;55.652;37.710;2022-11-15T18:36:29;2.20;88.70
30290;DHT22;17105;55.652;37.710;2022-11-15T18:37:04;2.20;88.70
30290;DHT22;17105;55.652;37.710;2022-11-15T18:37:37;2.20;88.70
30290;DHT22;17105;55.652;37.710;2022-11-15T18:38:10;2.20;88.90
30290;DHT22;17105;55.652;37.710;2022-11-15T18:38:44;2.20;89.00
30290;DHT22;17105;55.652;37.710;2022-11-15T18:39:18;2.20;89.00
30290;DHT22;17105;55.652;37.710;2022-11-15T18:39:53;2.20;89.10
30290;DHT22;17105;55.652;37.710;2022-11-15T18:40:27;2.10;89.00
30290;DHT22;17105;55.652;37.710;2022-11-15T18:41:04;2.10;89.20
30290;DHT22;17105;55.652;37.710;2022-11-15T18:41:38;2.10;89.30
30290;DHT22;17105;55.652;37.710;2022-11-15T18:42:15;2.10;89.20
30290;DHT22;17105;55.652;37.710;2022-11-15T18:42:48;2.10;89.10
30290;DHT22;17105;55.652;37.710;2022-11-15T18:43:23;2.20;89.10
30290;DHT22;17105;55.652;37.710;2022-11-15T18:43:58;2.20;89.00
30290;DHT22;17105;55.652;37.710;2022-11-15T18:44:34;2.20;89.00
30290;DHT22;17105;55.652;37.710;2022-11-15T18:45:08;2.20;88.80
30290;DHT22;17105;55.652;37.710;2022-11-15T18:45:45;2.20;88.90
30290;DHT22;17105;55.652;37.710;2022-11-15T18:46:19;2.20;89.00
30290;DHT22;17105;55.652;37.710;2022-11-15T18:46:53;2.30;89.00
30290;DHT22;17105;55.652;37.710;2022-11-15T18:47:28;2.30;88.90
30290;DHT22;17105;55.652;37.710;2022-11-15T18:48:03;2.30;88.80
30290;DHT22;17105;55.652;37.710;2022-11-15T18:48:37;2.30;88.80
30290;DHT22;17105;55.652;37.710;2022-11-15T18:49:12;2.30;88.80
30290;DHT22;17105;55.652;37.710;2022-11-15T18:49:47;2.30;88.90
30290;DHT22;17105;55.652;37.710;2022-11-15T18:50:22;2.20;89.10
30290;DHT22;17105;55.652;37.710;2022-11-15T18:51:00;2.20;89.20
30290;DHT22;17105;55.652;37.710;2022-11-15T18:51:37;2.10;89.20
30290;DHT22;17105;55.652;37.710;2022-11-15T18:52:14;2.20;89.30
30290;DHT22;17105;55.652;37.710;2022-11-15T18:52:48;2.20;89.30
30290;DHT22;17105;55.652;37.710;2022-11-15T18:53:22;2.20;89.40
30290;DHT22;17105;55.652;37.710;2022-11-15T18:53:58;2.20;89.50
30290;DHT22;17105;55.652;37.710;2022-11-15T18:54:32;2.20;89.40
30290;DHT22;17105;55.652;37.710;2022-11-15T18:55:06;2.20;89.50
30290;DHT22;17105;55.652;37.710;2022-11-15T18:55:41;2.10;89.30
30290;DHT22;17105;55.652;37.710;2022-11-15T18:56:15;2.20;89.50
30290;DHT22;17105;55.652;37.710;2022-11-15T18:56:50;2.10;89.60
30290;DHT22;17105;55.652;37.710;2022-11-15T18:57:27;2.10;89.70
30290;DHT22;17105;55.652;37.710;2022-11-15T18:58:01;2.10;89.80
30290;DHT22;17105;55.652;37.710;2022-11-15T18:58:35;2.10;89.90
30290;DHT22;17105;55.652;37.710;2022-11-15T18:59:08;2.10;89.90
30290;DHT22;17105;55.652;37.710;2022-11-15T18:59:43;2.10;89.90
30290;DHT22;17105;55.652;37.710;2022-11-15T19:00:18;2.10;89.90
30290;DHT22;17105;55.652;37.710;2022-11-15T19:00:56;2.10;89.90
30290;DHT22;17105;55.652;37.710;2022-11-15T19:01:34;2.10;89.80
30290;DHT22;17105;55.652;37.710;2022-11-15T19:02:08;2.10;89.80
30290;DHT22;17105;55.652;37.710;2022-11-15T19:02:44;2.10;89.80
30290;DHT22;17105;55.652;37.710;2022-11-15T19:03:18;2.10;89.80
30290;DHT22;17105;55.652;37.710;2022-11-15T19:03:57;2.10;89.80
30290;DHT22;17105;55.652;37.710;2022-11-15T19:04:33;2.10;89.80
30290;DHT22;17105;55.652;37.710;2022-11-15T19:05:07;2.10;89.90
30290;DHT22;17105;55.652;37.710;2022-11-15T19:05:43;2.10;89.80
30290;DHT22;17105;55.652;37.710;2022-11-15T19:06:18;2.10;89.80
30290;DHT22;17105;55.652;37.710;2022-11-15T19:06:52;2.20;89.80
30290;DHT22;17105;55.652;37.710;2022-11-15T19:07:26;2.20;89.60
30290;DHT22;17105;55.652;37.710;2022-11-15T19:08:00;2.20;89.60
30290;DHT22;17105;55.652;37.710;2022-11-15T19:08:35;2.20;89.50
30290;DHT22;17105;55.652;37.710;2022-11-15T19:09:09;2.20;89.40
30290;DHT22;17105;55.652;37.710;2022-11-15T19:09:44;2.20;89.30
30290;DHT22;17105;55.652;37.710;2022-11-15T19:10:18;2.30;89.50
30290;DHT22;17105;55.652;37.710;2022-11-15T19:10:52;2.20;89.30
30290;DHT22;17105;55.652;37.710;2022-11-15T19:11:27;2.20;89.40
30290;DHT22;17105;55.652;37.710;2022-11-15T19:12:01;2.20;89.30
30290;DHT22;17105;55.652;37.710;2022-11-15T19:12:37;2.20;89.30
30290;DHT22;17105;55.652;37.710;2022-11-15T19:13:11;2.20;89.30
30290;DHT22;17105;55.652;37.710;2022-11-15T19:13:44;2.30;89.30
30290;DHT22;17105;55.652;37.710;2022-11-15T19:14:19;2.30;89.40
30290;DHT22;17105;55.652;37.710;2022-11-15T19:14:56;2.30;89.30
30290;DHT22;17105;55.652;37.710;2022-11-15T19:15:30;2.30;89.30
30290;DHT22;17105;55.652;37.710;2022-11-15T19:16:04;2.30;89.20
30290;DHT22;17105;55.652;37.710;2022-11-15T19:16:39;2.30;89.20
30290;DHT22;17105;55.652;37.710;2022-11-15T19:17:13;2.20;89.30
30290;DHT22;17105;55.652;37.710;2022-11-15T19:17:47;2.20;89.60
30290;DHT22;17105;55.652;37.710;2022-11-15T19:18:21;2.20;89.60
30290;DHT22;17105;55.652;37.710;2022-11-15T19:18:54;2.20;89.70
30290;DHT22;17105;55.652;37.710;2022-11-15T19:19:29;2.20;89.80
30290;DHT22;17105;55.652;37.710;2022-11-15T19:20:06;2.20;89.80
30290;DHT22;17105;55.652;37.710;2022-11-15T19:20:42;2.20;89.70
30290;DHT22;17105;55.652;37.710;2022-11-15T19:21:15;2.20;89.80
30290;DHT22;17105;55.652;37.710;2022-11-15T19:21:49;2.20;89.60
30290;DHT22;17105;55.652;37.710;2022-11-15T19:22:25;2.20;89.80
30290;DHT22;17105;55.652;37.710;2022-11-15T19:22:58;2.20;89.70
30290;DHT22;17105;55.652;37.710;2022-11-15T19:23:34;2.20;89.60
30290;DHT22;17105;55.652;37.710;2022-11-15T19:24:08;2.20;89.70
30290;DHT22;17105;55.652;37.710;2022-11-15T19:24:43;2.20;89.60
30290;DHT22;17105;55.652;37.710;2022-11-15T19:25:17;2.20;89.50
30290;DHT22;17105;55.652;37.710;2022-11-15T19:25:53;2.20;89.40
30290;DHT22;17105;55.652;37.710;2022-11-15T19:26:28;2.30;89.40
30290;DHT22;17105;55.652;37.710;2022-11-15T19:27:01;2.30;89.30
30290;DHT22;17105;55.652;37.710;2022-11-15T19:27:37;2.30;89.10
30290;DHT22;17105;55.652;37.710;2022-11-15T19:28:10;2.30;89.20
30290;DHT22;17105;55.652;37.710;2022-11-15T19:28:48;2.30;89.30
30290;DHT22;17105;55.652;37.710;2022-11-15T19:29:24;2.30;89.40
30290;DHT22;17105;55.652;37.710;2022-11-15T19:29:58;2.30;89.30
30290;DHT22;17105;55.652;37.710;2022-11-15T19:30:32;2.30;89.40
30290;DHT22;17105;55.652;37.710;2022-11-15T19:31:06;2.30;89.30
30290;DHT22;17105;55.652;37.710;2022-11-15T19:31:40;2.30;89.30
30290;DHT22;17105;55.652;37.710;2022-11-15T19:32:15;2.30;89.30
30290;DHT22;17105;55.652;37.710;2022-11-15T19:32:49;2.30;89.30
30290;DHT22;17105;55.652;37.710;2022-11-15T19:33:23;2.30;89.70
30290;DHT22;17105;55.652;37.710;2022-11-15T19:33:59;2.30;89.20
30290;DHT22;17105;55.652;37.710;2022-11-15T19:34:34;2.30;89.40
30290;DHT22;17105;55.652;37.710;2022-11-15T19:35:07;2.30;89.30
30290;DHT22;17105;55.652;37.710;2022-11-15T19:35:41;2.30;89.30
30290;DHT22;17105;55.652;37.710;2022-11-15T19:36:16;2.30;89.30
30290;DHT22;17105;55.652;37.710;2022-11-15T19:36:50;2.20;89.30
30290;DHT22;17105;55.652;37.710;2022-11-15T19:37:25;2.20;89.30
30290;DHT22;17105;55.652;37.710;2022-11-15T19:37:58;2.20;89.30
30290;DHT22;17105;55.652;37.710;2022-11-15T19:38:32;2.20;89.30
30290;DHT22;17105;55.652;37.710;2022-11-15T19:39:08;2.20;89.20
30290;DHT22;17105;55.652;37.710;2022-11-15T19:39:43;2.20;89.20
30290;DHT22;17105;55.652;37.710;2022-11-15T19:40:17;2.20;89.20
30290;DHT22;17105;55.652;37.710;2022-11-15T19:40:55;2.20;89.30
30290;DHT22;17105;55.652;37.710;2022-11-15T19:41:30;2.20;89.60
30290;DHT22;17105;55.652;37.710;2022-11-15T19:42:03;2.20;89.70
30290;DHT22;17105;55.652;37.710;2022-11-15T19:42:40;2.10;89.80
30290;DHT22;17105;55.652;37.710;2022-11-15T19:43:14;2.10;90.00
30290;DHT22;17105;55.652;37.710;2022-11-15T19:43:47;2.10;90.00
30290;DHT22;17105;55.652;37.710;2022-11-15T19:44:26;2.00;90.10
30290;DHT22;17105;55.652;37.710;2022-11-15T19:45:00;2.00;90.10
30290;DHT22;17105;55.652;37.710;2022-11-15T19:45:35;2.00;90.20
30290;DHT22;17105;55.652;37.710;2022-11-15T19:46:09;2.00;90.10
30290;DHT22;17105;55.652;37.710;2022-11-15T19:46:44;2.00;90.10
30290;DHT22;17105;55.652;37.710;2022-11-15T19:47:20;2.00;90.10
30290;DHT22;17105;55.652;37.710;2022-11-15T19:47:54;2.00;90.20
30290;DHT22;17105;55.652;37.710;2022-11-15T19:48:28;2.00;90.20
30290;DHT22;17105;55.652;37.710;2022-11-15T19:49:03;2.00;90.20
30290;DHT22;17105;55.652;37.710;2022-11-15T19:49:38;2.00;90.20
30290;DHT22;17105;55.652;37.710;2022-11-15T19:50:16;2.10;90.20
30290;DHT22;17105;55.652;37.710;2022-11-15T19:50:50;2.00;90.20
30290;DHT22;17105;55.652;37.710;2022-11-15T19:51:24;2.10;90.10
30290;DHT22;17105;55.652;37.710;2022-11-15T19:52:00;2.10;90.10
30290;DHT22;17105;55.652;37.710;2022-11-15T19:52:34;2.10;90.00
30290;DHT22;17105;55.652;37.710;2022-11-15T19:53:09;2.10;90.00
30290;DHT22;17105;55.652;37.710;2022-11-15T19:53:42;2.10;90.00
30290;DHT22;17105;55.652;37.710;2022-11-15T19:54:18;2.10;89.90
30290;DHT22;17105;55.652;37.710;2022-11-15T19:54:51;2.10;89.80
30290;DHT22;17105;55.652;37.710;2022-11-15T19:55:26;2.10;89.70
30290;DHT22;17105;55.652;37.710;2022-11-15T19:56:01;2.10;89.80
30290;DHT22;17105;55.652;37.710;2022-11-15T19:56:34;2.10;89.80
30290;DHT22;17105;55.652;37.710;2022-11-15T19:57:10;2.10;89.80
30290;DHT22;17105;55.652;37.710;2022-11-15T19:57:45;2.20;89.90
30290;DHT22;17105;55.652;37.710;2022-11-15T19:58:20;2.20;89.90
30290;DHT22;17105;55.652;37.710;2022-11-15T19:58:53;2.20;89.70
30290;DHT22;17105;55.652;37.710;2022-11-15T19:59:28;2.20;89.60
30290;DHT22;17105;55.652;37.710;2022-11-15T20:00:03;2.20;89.60
30290;DHT22;17105;55.652;37.710;2022-11-15T20:00:39;2.20;89.50
30290;DHT22;17105;55.652;37.710;2022-11-15T20:01:15;2.20;89.40
30290;DHT22;17105;55.652;37.710;2022-11-15T20:01:49;2.20;89.30
30290;DHT22;17105;55.652;37.710;2022-11-15T20:02:23;2.20;89.30
30290;DHT22;17105;55.652;37.710;2022-11-15T20:02:58;2.20;89.20
30290;DHT22;17105;55.652;37.710;2022-11-15T20:03:33;2.20;89.00
30290;DHT22;17105;55.652;37.710;2022-11-15T20:04:07;2.20;89.10
30290;DHT22;17105;55.652;37.710;2022-11-15T20:04:41;2.20;89.10
30290;DHT22;17105;55.652;37.710;2022-11-15T20:05:16;2.20;89.10
30290;DHT22;17105;55.652;37.710;2022-11-15T20:05:50;2.20;89.10
30290;DHT22;17105;55.652;37.710;2022-11-15T20:06:25;2.20;89.00
30290;DHT22;17105;55.652;37.710;2022-11-15T20:06:59;2.20;89.00
30290;DHT22;17105;55.652;37.710;2022-11-15T20:07:34;2.20;89.00
30290;DHT22;17105;55.652;37.710;2022-11-15T20:08:08;2.20;89.00
30290;DHT22;17105;55.652;37.710;2022-11-15T20:08:41;2.10;89.00
30290;DHT22;17105;55.652;37.710;2022-11-15T20:09:16;2.10;89.00
30290;DHT22;17105;55.652;37.710;2022-11-15T20:09:50;2.20;89.00
30290;DHT22;17105;55.652;37.710;2022-11-15T20:10:25;2.20;89.00
30290;DHT22;17105;55.652;37.710;2022-11-15T20:11:00;2.20;88.80
30290;DHT22;17105;55.652;37.710;2022-11-15T20:11:35;2.20;88.80
30290;DHT22;17105;55.652;37.710;2022-11-15T20:12:11;2.20;88.80
30290;DHT22;17105;55.652;37.710;2022-11-15T20:12:46;2.10;88.80
30290;DHT22;17105;55.652;37.710;2022-11-15T20:13:19;2.10;88.90
30290;DHT22;17105;55.652;37.710;2022-11-15T20:13:55;2.10;88.90
30290;DHT22;17105;55.652;37.710;2022-11-15T20:14:28;2.20;88.90
30290;DHT22;17105;55.652;37.710;2022-11-15T20:15:04;2.20;88.70
30290;DHT22;17105;55.652;37.710;2022-11-15T20:15:39;2.20;88.50
30290;DHT22;17105;55.652;37.710;2022-11-15T20:16:15;2.10;88.40
30290;DHT22;17105;55.652;37.710;2022-11-15T20:16:50;2.10;88.50
30290;DHT22;17105;55.652;37.710;2022-11-15T20:17:26;2.10;88.70
30290;DHT22;17105;55.652;37.710;2022-11-15T20:18:00;2.00;88.90
30290;DHT22;17105;55.652;37.710;2022-11-15T20:18:35;2.00;89.10
30290;DHT22;17105;55.652;37.710;2022-11-15T20:19:08;1.90;89.20
30290;DHT22;17105;55.652;37.710;2022-11-15T20:19:45;2.00;89.30
30290;DHT22;17105;55.652;37.710;2022-11-15T20:20:18;2.00;89.40